Twain, CA (95984)

10:35 AM PDT on August 31, 2016 (GMT -0700)
| | Change Station

Elev -9999 ft 0.00 °N, 0.00 °E | Updated

Clear
Clear
68 °F
Feels Like 68 °F
N
12
Wind Variable Wind from SSW
Gusts 17 mph

Today
High -- | Low -- °F
--% Chance of Precip.
Yesterday
High -- | Low -- °F
Precip. -- in
Pressure 30.01 in
Visibility 10.0 miles
Clouds Clear
Dew Point 41 °F
Humidity 37%
Rainfall --
Snow Depth Not available.
6:31 AM 7:36 PM
Waning Crescent, 0% visible
METAR KGOO 311720Z AUTO 20003KT 10SM CLR 25/05 A3001 RMK AO1
Pressure 30.01 in
Visibility 10.0 miles
Clouds Clear
Dew Point 41 °F
Humidity 37%
Rainfall --
Snow Depth Not available.
6:31 AM 7:36 PM
Waning Crescent, 0% visible
METAR KGOO 311720Z AUTO 20003KT 10SM CLR 25/05 A3001 RMK AO1

10-Day Weather Forecast

Almanac

Astronomy

Aug. 31, 2016 Rise Set
Actual Time
Civil Twilight
Nautical Twilight
Astronomical Twilight
Moon
Length of Visible Light
Length of Day
Tomorrow will be .
, % of the Moon is Illuminated

Today's Extremes

State Highs State Lows

Community

WunderPhotos

Upload Photos

1,936,143 photos uploaded!

WunderBlog® & News

Nearby

Air Quality

  Air Quality AQ Index Pollutant
Not available.

Snow Depth

Station Depth Elevation

Earthquake Activity

City Distance Mag. Time & Date
Minimum magnitude displayed is 2.5.

Coastal Water Temperatures

Place Temperature

Stations

Nearby Weather Stations

Station Location Temp. Windchill Dew Point Humidity Wind Precip. Elev Updated Type
                   

Watches & Warnings

There are currently no watches in effect.